Stem, North Carolina
Current Conditions -  °F | °C
As of 4:15 PM on Saturday 22 Nov 2014 (Local Time) from KHNZ Reporting Station
Clear Clear  
Wind Chill: 50°   Ceiling: Unl
Heat Index: 50°   Visibility: 10mi
Dew Point: 10°   Wind: 7mph
Humidity: 20%   Direction: 210°SSW
Pressure: 30.39"   Gusts: NA
Location:  36.2°N, 78.72°W
Report Text: KHNZ 222115Z AUTO 21006KT 10SM CLR 10/M12 A3039 RMK AO2 T01001120
Loading
Personal Weather Stations






























Interactive Weather Map New forecast layout! Learn more

10-Day Weather Forecast

Advertisements
Track Severe Weather on mobile